createdAt,value
2019-05-23T00:01:48.128Z,14.30
2019-05-23T00:04:22.503Z,13.17
2019-05-23T00:06:50.052Z,13.37
2019-05-23T00:09:16.911Z,13.43
2019-05-23T00:11:43.923Z,14.03
2019-05-23T00:14:21.521Z,14.10
2019-05-23T00:16:51.109Z,12.83
2019-05-23T00:19:19.719Z,14.53
2019-05-23T00:21:48.387Z,13.77
2019-05-23T00:24:16.271Z,13.87
2019-05-23T00:26:44.253Z,14.67
2019-05-23T00:29:11.588Z,13.50
2019-05-23T00:31:58.218Z,13.17
2019-05-23T00:34:25.821Z,14.63
2019-05-23T00:36:53.639Z,14.37
2019-05-23T00:39:22.195Z,12.87
2019-05-23T00:41:50.094Z,13.57
2019-05-23T00:44:18.412Z,13.63
2019-05-23T00:46:45.887Z,12.40
2019-05-23T00:49:15.397Z,13.07
2019-05-23T00:51:43.009Z,13.10
2019-05-23T00:54:10.379Z,13.30
2019-05-23T00:56:37.927Z,12.20
2019-05-23T00:59:06.224Z,10.87
2019-05-23T01:01:33.549Z,11.37
2019-05-23T01:04:02.755Z,12.07
2019-05-23T01:06:30.415Z,11.80
2019-05-23T01:08:58.722Z,12.03
2019-05-23T01:11:25.550Z,12.17
2019-05-23T01:13:53.527Z,12.87
2019-05-23T01:16:22.783Z,12.67
2019-05-23T01:18:51.278Z,12.43
2019-05-23T01:21:27.969Z,12.33
2019-05-23T01:24:06.644Z,12.73
2019-05-23T01:26:33.720Z,12.23
2019-05-23T01:29:02.621Z,12.50
2019-05-23T01:31:34.360Z,12.03
2019-05-23T01:34:03.500Z,12.17
2019-05-23T01:36:31.272Z,13.13
2019-05-23T01:38:59.284Z,12.90
2019-05-23T01:41:26.348Z,12.47
2019-05-23T01:43:53.433Z,11.43
2019-05-23T01:46:20.383Z,11.70
2019-05-23T01:48:48.236Z,12.53
2019-05-23T01:51:16.019Z,12.93
2019-05-23T01:53:42.952Z,12.67
2019-05-23T01:56:10.213Z,12.67
2019-05-23T01:58:37.940Z,11.53
2019-05-23T02:01:05.178Z,11.63
2019-05-23T02:03:32.455Z,12.80
2019-05-23T02:05:59.813Z,12.47
2019-05-23T02:08:26.939Z,13.00
2019-05-23T02:10:53.855Z,12.20
2019-05-23T02:13:20.901Z,12.03
2019-05-23T02:15:48.188Z,12.47
2019-05-23T02:18:17.051Z,12.17
2019-05-23T02:20:45.079Z,12.70
2019-05-23T02:23:12.847Z,12.97
2019-05-23T02:25:41.790Z,12.47
2019-05-23T02:28:09.775Z,13.17
2019-05-23T02:30:37.133Z,13.83
2019-05-23T02:33:04.221Z,13.30
2019-05-23T02:35:31.473Z,13.13
2019-05-23T02:38:21.189Z,13.17
2019-05-23T02:40:55.392Z,13.80
2019-05-23T02:43:23.311Z,13.50
2019-05-23T02:45:54.667Z,14.63
2019-05-23T02:48:25.031Z,14.73
2019-05-23T02:50:57.754Z,14.17
2019-05-23T02:53:28.728Z,14.03
2019-05-23T02:55:59.132Z,13.23
2019-05-23T02:58:32.827Z,13.00
2019-05-23T03:01:30.029Z,13.20
2019-05-23T03:04:02.530Z,13.30
2019-05-23T03:06:29.967Z,12.50
2019-05-23T03:08:58.980Z,12.77
2019-05-23T03:11:38.104Z,13.47
2019-05-23T03:14:05.112Z,12.70
2019-05-23T03:16:33.441Z,13.87
2019-05-23T03:19:05.229Z,14.43
2019-05-23T03:21:34.268Z,13.17
2019-05-23T03:24:01.539Z,13.87
2019-05-23T03:26:56.003Z,14.03
2019-05-23T03:29:23.198Z,14.37
2019-05-23T03:31:55.111Z,13.70
2019-05-23T03:34:24.270Z,13.40
2019-05-23T03:36:52.785Z,13.73
2019-05-23T03:39:19.867Z,14.87
2019-05-23T03:41:47.389Z,13.70
2019-05-23T03:44:14.546Z,14.80
2019-05-23T03:46:46.084Z,14.70
2019-05-23T03:49:14.177Z,15.50
2019-05-23T03:51:41.728Z,15.13
2019-05-23T03:54:10.592Z,16.67
2019-05-23T03:56:37.307Z,16.97
2019-05-23T03:59:05.768Z,16.53
2019-05-23T04:01:46.734Z,14.83
2019-05-23T04:04:02.929Z,15.67
2019-05-23T04:06:30.889Z,15.30
2019-05-23T04:08:57.832Z,14.47
2019-05-23T04:11:24.914Z,15.20
2019-05-23T04:13:51.865Z,14.37
2019-05-23T04:16:19.332Z,15.33
2019-05-23T04:18:46.718Z,15.17
2019-05-23T04:21:14.694Z,14.63
2019-05-23T04:23:42.169Z,14.70
2019-05-23T04:26:10.205Z,15.63
2019-05-23T04:28:37.377Z,15.50
2019-05-23T04:31:05.428Z,16.00
2019-05-23T04:33:32.807Z,15.27
2019-05-23T04:35:59.645Z,15.60
2019-05-23T04:38:26.503Z,16.63
2019-05-23T04:40:53.499Z,15.23
2019-05-23T04:43:20.517Z,14.90
2019-05-23T04:45:48.065Z,15.40
2019-05-23T04:48:16.160Z,15.80
2019-05-23T04:50:44.983Z,16.07
2019-05-23T04:53:11.791Z,15.70
2019-05-23T04:55:39.349Z,15.33
2019-05-23T04:58:06.913Z,15.63
2019-05-23T05:00:34.153Z,15.70
2019-05-23T05:03:02.140Z,14.80
2019-05-23T05:05:29.396Z,16.10
2019-05-23T05:07:56.134Z,15.73
2019-05-23T05:10:25.240Z,15.53
2019-05-23T05:12:52.395Z,16.20
2019-05-23T05:15:19.856Z,16.03
2019-05-23T05:17:47.670Z,14.93
2019-05-23T05:20:15.796Z,15.10
2019-05-23T05:22:42.955Z,15.87
2019-05-23T05:25:11.112Z,15.03
2019-05-23T05:27:38.422Z,16.60
2019-05-23T05:30:05.751Z,16.10
2019-05-23T05:32:44.239Z,15.30
2019-05-23T05:35:01.703Z,14.90
2019-05-23T05:37:29.287Z,14.67
2019-05-23T05:39:56.783Z,17.43
2019-05-23T05:42:24.056Z,18.33
2019-05-23T05:44:50.821Z,16.57
2019-05-23T05:47:18.706Z,16.77
2019-05-23T05:49:46.280Z,16.87
2019-05-23T05:52:13.855Z,16.43
2019-05-23T05:54:41.187Z,17.13
2019-05-23T05:57:08.143Z,17.13
2019-05-23T05:59:35.515Z,15.83
2019-05-23T06:02:04.807Z,16.67
2019-05-23T06:04:31.963Z,16.00
2019-05-23T06:07:20.657Z,14.20
2019-05-23T06:09:48.903Z,14.13
2019-05-23T06:12:16.181Z,15.80
2019-05-23T06:14:46.437Z,15.93
2019-05-23T06:17:15.054Z,15.73
2019-05-23T06:19:42.415Z,14.30
2019-05-23T06:22:11.597Z,14.83
2019-05-23T06:24:46.483Z,15.68
2019-05-23T06:27:09.675Z,14.98
2019-05-23T06:29:36.748Z,15.48
2019-05-23T06:32:05.947Z,15.10
2019-05-23T06:34:32.859Z,14.40
2019-05-23T06:37:00.308Z,14.85
2019-05-23T06:39:27.937Z,15.10
2019-05-23T06:41:55.444Z,15.60
2019-05-23T06:44:22.322Z,15.07
2019-05-23T06:46:49.594Z,16.83
2019-05-23T06:49:16.435Z,17.07
2019-05-23T06:51:43.395Z,15.90
2019-05-23T06:54:11.795Z,16.47
2019-05-23T06:56:38.915Z,14.83
2019-05-23T06:59:06.090Z,14.63
2019-05-23T07:01:33.044Z,16.50
2019-05-23T07:04:00.239Z,16.00
2019-05-23T07:06:28.071Z,16.70
2019-05-23T07:08:55.044Z,16.97
2019-05-23T07:11:22.711Z,17.62
2019-05-23T07:13:49.868Z,16.85
2019-05-23T07:16:16.827Z,16.85
2019-05-23T07:18:44.031Z,15.45
2019-05-23T07:21:11.847Z,14.63
2019-05-23T07:23:38.848Z,16.48
2019-05-23T07:26:05.871Z,14.43
2019-05-23T07:28:33.587Z,14.63
2019-05-23T07:31:00.828Z,14.43
2019-05-23T07:33:27.804Z,14.28
2019-05-23T07:35:55.257Z,13.10
2019-05-23T07:38:22.136Z,12.37
2019-05-23T07:40:49.273Z,13.22
2019-05-23T07:43:16.672Z,11.45
2019-05-23T07:45:50.932Z,12.00
2019-05-23T07:48:17.703Z,11.90
2019-05-23T07:50:44.719Z,12.88
2019-05-23T07:53:15.990Z,13.98
2019-05-23T07:55:43.471Z,12.58
2019-05-23T07:58:13.401Z,12.40
2019-05-23T08:00:44.175Z,12.33
2019-05-23T08:03:11.520Z,13.60
2019-05-23T08:05:38.679Z,13.58
2019-05-23T08:08:06.363Z,12.75
2019-05-23T08:10:34.508Z,12.90
2019-05-23T08:13:02.179Z,13.48
2019-05-23T08:15:29.936Z,13.65
2019-05-23T08:17:57.053Z,11.78
2019-05-23T08:20:25.409Z,12.40
2019-05-23T08:22:52.596Z,12.05
2019-05-23T08:25:19.680Z,11.43
2019-05-23T08:27:46.518Z,11.85
2019-05-23T08:30:14.815Z,11.88
2019-05-23T08:32:42.288Z,12.73
2019-05-23T08:35:09.381Z,13.03
2019-05-23T08:37:37.444Z,10.15
2019-05-23T08:40:06.565Z,11.28
2019-05-23T08:42:34.219Z,12.58
2019-05-23T08:45:01.900Z,12.45
2019-05-23T08:47:29.240Z,12.15
2019-05-23T08:49:56.283Z,9.88
2019-05-23T08:52:23.311Z,11.20
2019-05-23T08:54:55.248Z,10.95
2019-05-23T08:57:22.532Z,10.88
2019-05-23T08:59:49.582Z,11.12
2019-05-23T09:02:17.272Z,12.73
2019-05-23T09:05:02.253Z,13.30
2019-05-23T09:07:13.905Z,11.03
2019-05-23T09:09:42.387Z,10.60
2019-05-23T09:12:09.248Z,12.82
2019-05-23T09:14:36.610Z,12.33
2019-05-23T09:17:03.763Z,10.60
2019-05-23T09:19:30.734Z,13.15
2019-05-23T09:21:58.375Z,12.15
2019-05-23T09:24:25.509Z,9.98
2019-05-23T09:26:52.457Z,11.05
2019-05-23T09:29:19.246Z,12.30
2019-05-23T09:31:46.594Z,12.85
2019-05-23T09:34:13.489Z,11.73
2019-05-23T09:36:40.836Z,13.18
2019-05-23T09:39:09.762Z,12.10
2019-05-23T09:41:37.502Z,12.35
2019-05-23T09:44:05.547Z,12.18
2019-05-23T09:46:32.420Z,11.60
2019-05-23T09:48:59.539Z,13.80
2019-05-23T09:51:26.377Z,13.40
2019-05-23T09:53:53.352Z,11.35
2019-05-23T09:56:20.315Z,12.35
2019-05-23T09:58:47.275Z,12.75
2019-05-23T10:01:15.660Z,11.73
2019-05-23T10:03:42.618Z,14.28
2019-05-23T10:06:09.591Z,12.65
2019-05-23T10:08:36.357Z,13.15
2019-05-23T10:11:03.616Z,15.15
2019-05-23T10:13:39.138Z,13.35
2019-05-23T10:16:07.731Z,12.65
2019-05-23T10:18:34.667Z,13.40
2019-05-23T10:21:01.482Z,17.37
2019-05-23T10:23:28.518Z,14.65
2019-05-23T10:25:55.493Z,15.45
2019-05-23T10:28:22.340Z,15.28
2019-05-23T10:30:49.311Z,16.67
2019-05-23T10:33:16.330Z,18.80
2019-05-23T10:35:58.927Z,16.95
2019-05-23T10:38:12.537Z,14.65
2019-05-23T10:40:39.709Z,15.38
2019-05-23T10:43:07.788Z,18.57
2019-05-23T10:45:35.243Z,15.60
2019-05-23T10:48:02.629Z,17.70
2019-05-23T10:50:43.686Z,18.05
2019-05-23T10:52:58.483Z,16.60
2019-05-23T10:55:25.435Z,18.85
2019-05-23T10:57:52.320Z,17.55
2019-05-23T11:00:21.381Z,14.70
2019-05-23T11:02:48.436Z,14.98
2019-05-23T11:05:15.600Z,15.25
2019-05-23T11:07:43.075Z,12.43
2019-05-23T11:10:11.105Z,17.10
2019-05-23T11:12:38.088Z,15.58
2019-05-23T11:15:05.469Z,14.05
2019-05-23T11:17:33.388Z,12.63
2019-05-23T11:20:00.333Z,12.10
2019-05-23T11:22:27.807Z,14.15
2019-05-23T11:24:56.213Z,11.20
2019-05-23T11:27:23.293Z,12.95
2019-05-23T11:29:50.630Z,9.68
2019-05-23T11:32:20.329Z,10.48
2019-05-23T11:34:46.691Z,8.60
2019-05-23T11:37:13.526Z,10.40
2019-05-23T11:39:49.736Z,11.33
2019-05-23T11:42:09.356Z,10.45
2019-05-23T11:44:36.223Z,9.68
2019-05-23T11:47:04.223Z,10.68
2019-05-23T11:49:31.395Z,9.13
2019-05-23T11:51:58.408Z,10.00
2019-05-23T11:54:26.168Z,7.95
2019-05-23T11:56:54.559Z,8.33
2019-05-23T11:59:21.567Z,10.23
2019-05-23T12:02:06.657Z,7.50
2019-05-23T12:04:39.248Z,8.65
2019-05-23T12:07:09.993Z,8.75
2019-05-23T12:09:37.350Z,8.80
2019-05-23T12:12:04.380Z,8.63
2019-05-23T12:14:31.672Z,7.97
2019-05-23T12:16:59.130Z,7.60
2019-05-23T12:19:26.129Z,6.60
2019-05-23T12:21:52.954Z,8.30
2019-05-23T12:24:20.016Z,6.10
2019-05-23T12:26:46.910Z,8.00
2019-05-23T12:29:14.552Z,9.03
2019-05-23T12:31:41.395Z,8.65
2019-05-23T12:34:08.668Z,6.45
2019-05-23T12:36:35.551Z,6.97
2019-05-23T12:39:04.555Z,6.65
2019-05-23T12:41:31.575Z,8.08
2019-05-23T12:43:58.499Z,7.62
2019-05-23T12:46:25.270Z,6.30
2019-05-23T12:49:03.883Z,4.75
2019-05-23T12:51:33.198Z,6.05
2019-05-23T12:54:00.060Z,6.08
2019-05-23T12:56:27.239Z,6.87
2019-05-23T12:58:54.302Z,8.38
2019-05-23T13:01:21.519Z,8.48
2019-05-23T13:03:48.679Z,8.68
2019-05-23T13:06:15.543Z,8.35
2019-05-23T13:08:42.740Z,9.80
2019-05-23T13:11:09.770Z,9.85
2019-05-23T13:13:36.763Z,8.13
2019-05-23T13:16:04.115Z,8.08
2019-05-23T13:18:31.200Z,7.60
2019-05-23T13:20:59.658Z,8.95
2019-05-23T13:23:27.040Z,9.18
2019-05-23T13:25:53.915Z,9.20
2019-05-23T13:28:20.792Z,9.30
2019-05-23T13:30:48.157Z,8.95
2019-05-23T13:33:15.523Z,7.78
2019-05-23T13:35:43.084Z,8.38
2019-05-23T13:38:10.017Z,7.85
2019-05-23T13:40:37.248Z,8.10
2019-05-23T13:43:07.104Z,7.30
2019-05-23T13:45:32.996Z,8.15
2019-05-23T13:47:59.948Z,7.72
2019-05-23T13:50:27.664Z,7.97
2019-05-23T13:52:54.803Z,8.05
2019-05-23T13:55:21.823Z,7.42
2019-05-23T13:57:48.820Z,9.28
2019-05-23T14:00:17.459Z,8.78
2019-05-23T14:02:44.342Z,8.45
2019-05-23T14:05:12.264Z,6.95
2019-05-23T14:07:39.156Z,8.53
2019-05-23T14:10:07.836Z,7.08
2019-05-23T14:12:34.833Z,6.87
2019-05-23T14:15:01.739Z,6.83
2019-05-23T14:17:41.607Z,7.55
2019-05-23T14:20:08.716Z,7.33
2019-05-23T14:22:39.500Z,7.15
2019-05-23T14:25:06.783Z,7.40
2019-05-23T14:27:51.907Z,7.10
2019-05-23T14:30:34.335Z,7.10
2019-05-23T14:33:03.636Z,6.22
2019-05-23T14:35:32.154Z,8.08
2019-05-23T14:38:01.211Z,8.73
2019-05-23T14:40:28.478Z,8.15
2019-05-23T14:43:04.420Z,7.95
2019-05-23T14:45:37.632Z,7.17
2019-05-23T14:48:12.286Z,6.85
2019-05-23T14:50:54.581Z,6.45
2019-05-23T14:53:23.653Z,7.05
2019-05-23T14:55:50.662Z,6.47
2019-05-23T14:58:17.732Z,6.78
2019-05-23T15:00:46.549Z,7.45
2019-05-23T15:03:13.471Z,7.58
2019-05-23T15:05:40.357Z,6.58
2019-05-23T15:08:07.091Z,6.95
2019-05-23T15:10:34.260Z,6.55
2019-05-23T15:13:01.103Z,6.72
2019-05-23T15:15:28.558Z,7.50
2019-05-23T15:17:55.512Z,7.55
2019-05-23T15:20:22.811Z,8.13
2019-05-23T15:22:49.743Z,6.60
2019-05-23T15:25:18.435Z,7.33
2019-05-23T15:27:45.560Z,7.53
2019-05-23T15:30:13.247Z,7.00
2019-05-23T15:32:40.124Z,6.45
2019-05-23T15:35:07.090Z,6.75
2019-05-23T15:37:34.088Z,6.05
2019-05-23T15:40:00.923Z,6.62
2019-05-23T15:42:27.924Z,6.97
2019-05-23T15:44:54.634Z,6.03
2019-05-23T15:47:23.475Z,6.20
2019-05-23T15:49:53.236Z,6.08
2019-05-23T15:52:38.369Z,6.85
2019-05-23T15:55:16.684Z,5.95
2019-05-23T15:57:54.696Z,5.90
2019-05-23T16:00:42.427Z,5.95
2019-05-23T16:03:17.880Z,6.70
2019-05-23T16:05:44.855Z,7.00
2019-05-23T16:08:11.919Z,6.33
2019-05-23T16:10:38.889Z,5.42
2019-05-23T16:13:06.699Z,6.47
2019-05-23T16:15:34.255Z,7.03
2019-05-23T16:18:02.222Z,7.28
2019-05-23T16:20:29.105Z,6.85
2019-05-23T16:22:56.442Z,7.33
2019-05-23T16:25:23.351Z,8.15
2019-05-23T16:27:50.687Z,6.33
2019-05-23T16:30:17.827Z,6.17
2019-05-23T16:32:46.726Z,6.20
2019-05-23T16:35:13.597Z,6.53
2019-05-23T16:37:40.596Z,6.60
2019-05-23T16:40:08.075Z,6.00
2019-05-23T16:42:35.059Z,6.55
2019-05-23T16:45:02.251Z,7.33
2019-05-23T16:47:29.195Z,7.25
2019-05-23T16:49:56.159Z,5.65
2019-05-23T16:52:23.086Z,5.85
2019-05-23T16:54:52.247Z,6.37
2019-05-23T16:57:44.532Z,6.85
2019-05-23T17:00:30.383Z,6.62
2019-05-23T17:03:09.431Z,7.03
2019-05-23T17:05:54.599Z,6.85
2019-05-23T17:08:36.812Z,6.45
2019-05-23T17:11:12.667Z,7.33
2019-05-23T17:13:52.180Z,6.12
2019-05-23T17:16:40.764Z,7.08
2019-05-23T17:19:15.494Z,6.87
2019-05-23T17:21:49.215Z,7.47
2019-05-23T17:24:39.988Z,6.90
2019-05-23T17:27:20.921Z,7.20
2019-05-23T17:29:54.780Z,7.62
2019-05-23T17:32:25.828Z,7.45
2019-05-23T17:34:53.396Z,7.72
2019-05-23T17:37:22.282Z,6.75
2019-05-23T17:39:53.024Z,7.30
2019-05-23T17:42:18.649Z,7.28
2019-05-23T17:44:45.909Z,7.50
2019-05-23T17:47:13.577Z,7.28
2019-05-23T17:49:40.452Z,6.55
2019-05-23T17:52:08.254Z,7.65
2019-05-23T17:54:35.215Z,7.78
2019-05-23T17:57:02.130Z,7.92
2019-05-23T17:59:29.055Z,7.62
2019-05-23T18:01:56.340Z,6.90
2019-05-23T18:04:23.509Z,8.20
2019-05-23T18:06:50.452Z,7.50
2019-05-23T18:09:18.592Z,7.17
2019-05-23T18:11:45.821Z,8.03
2019-05-23T18:14:13.671Z,6.25
2019-05-23T18:16:42.248Z,6.83
2019-05-23T18:19:09.091Z,7.25
2019-05-23T18:21:36.340Z,7.28
2019-05-23T18:24:04.287Z,6.80
2019-05-23T18:26:31.250Z,8.10
2019-05-23T18:28:58.043Z,7.85
2019-05-23T18:31:27.722Z,7.30
2019-05-23T18:33:55.960Z,7.72
2019-05-23T18:36:23.750Z,8.40
2019-05-23T18:38:52.343Z,6.72
2019-05-23T18:41:19.365Z,7.45
2019-05-23T18:43:47.230Z,8.78
2019-05-23T18:46:20.159Z,9.08
2019-05-23T18:48:47.063Z,8.78
2019-05-23T18:51:14.126Z,9.10
2019-05-23T18:53:41.283Z,8.43
2019-05-23T18:56:08.286Z,8.40
2019-05-23T18:58:35.282Z,8.08
2019-05-23T19:01:24.070Z,7.90
2019-05-23T19:03:51.047Z,7.78
2019-05-23T19:06:18.147Z,7.90
2019-05-23T19:08:45.360Z,8.50
2019-05-23T19:11:20.962Z,6.67
2019-05-23T19:13:41.040Z,6.90
2019-05-23T19:16:08.191Z,6.90
2019-05-23T19:18:36.287Z,6.13
2019-05-23T19:21:03.491Z,6.27
2019-05-23T19:23:30.997Z,6.10
2019-05-23T19:25:59.262Z,5.97
2019-05-23T19:28:26.713Z,6.13
2019-05-23T19:30:54.193Z,5.23
2019-05-23T19:33:21.246Z,5.63
2019-05-23T19:35:48.283Z,5.10
2019-05-23T19:38:15.563Z,5.47
2019-05-23T19:40:42.771Z,5.70
2019-05-23T19:43:11.967Z,5.67
2019-05-23T19:45:39.194Z,5.73
2019-05-23T19:48:06.175Z,5.50
2019-05-23T19:50:33.332Z,5.40
2019-05-23T19:53:00.259Z,5.43
2019-05-23T19:55:28.243Z,5.87
2019-05-23T19:57:55.955Z,6.03
2019-05-23T20:00:25.081Z,6.03
2019-05-23T20:02:54.802Z,6.53
2019-05-23T20:05:26.007Z,6.20
2019-05-23T20:07:53.087Z,7.07
2019-05-23T20:10:21.646Z,6.03
2019-05-23T20:12:49.840Z,6.53
2019-05-23T20:15:16.855Z,6.40
2019-05-23T20:17:43.884Z,7.20
2019-05-23T20:20:11.144Z,6.43
2019-05-23T20:22:37.923Z,6.63
2019-05-23T20:25:05.099Z,6.97
2019-05-23T20:27:32.023Z,6.60
2019-05-23T20:29:58.863Z,6.73
2019-05-23T20:32:26.171Z,7.03
2019-05-23T20:34:53.167Z,7.13
2019-05-23T20:37:22.063Z,7.63
2019-05-23T20:39:49.421Z,6.77
2019-05-23T20:42:16.459Z,6.80
2019-05-23T20:44:43.463Z,7.43
2019-05-23T20:47:11.742Z,7.23
2019-05-23T20:49:38.688Z,6.93
2019-05-23T20:52:06.283Z,7.67
2019-05-23T20:54:33.891Z,7.23
2019-05-23T20:57:01.277Z,6.87
2019-05-23T20:59:28.427Z,6.60
2019-05-23T21:01:55.468Z,7.70
2019-05-23T21:04:22.231Z,6.97
2019-05-23T21:06:49.399Z,8.07
2019-05-23T21:09:16.429Z,7.70
2019-05-23T21:11:43.303Z,7.43
2019-05-23T21:14:10.288Z,7.00
2019-05-23T21:16:37.157Z,8.10
2019-05-23T21:19:04.433Z,7.03
2019-05-23T21:21:31.291Z,7.53
2019-05-23T21:23:58.242Z,7.90
2019-05-23T21:26:25.277Z,7.90
2019-05-23T21:28:52.642Z,8.00
2019-05-23T21:31:21.931Z,7.87
2019-05-23T21:33:48.887Z,7.90
2019-05-23T21:36:15.911Z,8.47
2019-05-23T21:38:42.647Z,9.27
2019-05-23T21:41:09.715Z,8.37
2019-05-23T21:43:36.487Z,8.20
2019-05-23T21:46:03.746Z,8.10
2019-05-23T21:48:30.715Z,8.03
2019-05-23T21:50:57.675Z,8.40
2019-05-23T21:53:24.450Z,7.60
2019-05-23T21:55:51.316Z,7.77
2019-05-23T21:58:18.816Z,8.00
2019-05-23T22:01:28.930Z,8.13
2019-05-23T22:04:10.704Z,7.93
2019-05-23T22:06:38.687Z,8.53
2019-05-23T22:09:08.195Z,8.30
2019-05-23T22:11:35.183Z,7.90
2019-05-23T22:14:02.332Z,8.57
2019-05-23T22:16:29.200Z,7.93
2019-05-23T22:18:55.955Z,7.57
2019-05-23T22:21:23.248Z,7.60
2019-05-23T22:23:50.204Z,7.37
2019-05-23T22:26:17.322Z,8.73
2019-05-23T22:28:44.204Z,8.07
2019-05-23T22:31:12.371Z,8.03
2019-05-23T22:33:42.651Z,8.17
2019-05-23T22:36:09.743Z,8.70
2019-05-23T22:38:37.369Z,8.20
2019-05-23T22:41:04.339Z,8.27
2019-05-23T22:43:31.065Z,8.43
2019-05-23T22:45:58.061Z,8.43
2019-05-23T22:48:24.992Z,8.40
2019-05-23T22:50:51.759Z,7.97
2019-05-23T22:53:18.800Z,8.57
2019-05-23T22:55:45.787Z,8.07
2019-05-23T22:58:12.647Z,7.90
2019-05-23T23:00:41.592Z,8.17
2019-05-23T23:03:08.422Z,8.23
2019-05-23T23:05:35.434Z,7.97
2019-05-23T23:08:02.679Z,8.80
2019-05-23T23:10:29.693Z,8.87
2019-05-23T23:12:56.594Z,8.03
2019-05-23T23:15:24.806Z,8.30
2019-05-23T23:17:51.798Z,8.00
2019-05-23T23:20:18.780Z,9.10
2019-05-23T23:22:45.600Z,9.33
2019-05-23T23:25:12.547Z,9.10
2019-05-23T23:27:39.431Z,9.10
2019-05-23T23:30:07.652Z,9.17
2019-05-23T23:32:34.386Z,9.30
2019-05-23T23:35:01.361Z,8.70
2019-05-23T23:37:28.240Z,9.50
2019-05-23T23:39:55.152Z,9.57
2019-05-23T23:42:21.959Z,9.27
2019-05-23T23:44:48.459Z,9.30
2019-05-23T23:47:33.953Z,10.30
2019-05-23T23:50:18.999Z,9.33
2019-05-23T23:53:04.267Z,9.70
2019-05-23T23:55:49.395Z,8.90
2019-05-23T23:58:15.964Z,9.33
